Time;durP1;ratioP1;P1;durP2;ratioP2;P2;SDS_P1;SDS_P2;PMS_P1;PMS_P2;Temp;Humidity;BMP_temperature;BMP_pressure;BME280_temperature;BME280_humidity;BME280_pressure;Samples;Min_cycle;Max_cycle;Signal;HPM_P1;HPM_P2
2023/10/26 00:01:10;;;;;;;24.40;20.60;;;10.70;99.90;;;;;;5103979;28;20167;-77
2023/10/26 00:03:36;;;;;;;24.67;21.43;;;10.70;99.90;;;;;;5106533;28;20248;-78
2023/10/26 00:06:01;;;;;;;26.73;20.33;;;10.70;99.90;;;;;;5102009;28;20173;-78
2023/10/26 00:08:27;;;;;;;26.47;20.10;;;10.70;99.90;;;;;;5100424;28;20178;-77
2023/10/26 00:10:53;;;;;;;23.80;20.03;;;10.70;99.90;;;;;;5098879;28;20185;-78
2023/10/26 00:13:18;;;;;;;24.13;19.37;;;10.70;99.90;;;;;;5099712;28;20185;-77
2023/10/26 00:15:44;;;;;;;25.97;20.43;;;10.70;99.90;;;;;;5099243;28;20202;-78
2023/10/26 00:18:09;;;;;;;24.10;19.80;;;10.70;99.90;;;;;;5100226;28;20194;-78
2023/10/26 00:20:35;;;;;;;26.50;19.13;;;10.70;99.90;;;;;;5100250;28;20510;-78
2023/10/26 00:23:01;;;;;;;22.97;19.53;;;10.70;99.90;;;;;;5101006;28;20174;-78
2023/10/26 00:25:27;;;;;;;22.97;19.23;;;10.70;99.90;;;;;;5097941;28;20261;-78
2023/10/26 00:27:53;;;;;;;24.23;19.40;;;10.70;99.90;;;;;;5097442;28;20210;-77
2023/10/26 00:30:18;;;;;;;22.13;18.33;;;10.70;99.90;;;;;;5099674;28;20186;-78
2023/10/26 00:32:44;;;;;;;19.90;17.30;;;10.70;99.90;;;;;;5100209;28;20646;-78
2023/10/26 00:35:10;;;;;;;21.93;17.83;;;10.70;99.90;;;;;;5099999;28;20237;-78
2023/10/26 00:37:35;;;;;;;20.47;17.97;;;10.70;99.90;;;;;;5098240;28;20186;-77
2023/10/26 00:40:01;;;;;;;24.07;18.33;;;10.70;99.90;;;;;;5098071;28;20229;-78
2023/10/26 00:42:27;;;;;;;25.47;19.73;;;10.70;99.90;;;;;;5096739;28;20218;-77
2023/10/26 00:44:56;;;;;;;23.60;19.83;;;10.70;99.90;;;;;;5101270;28;20190;-78
2023/10/26 00:47:22;;;;;;;25.20;20.37;;;10.70;99.90;;;;;;5100257;28;20186;-78
2023/10/26 00:49:48;;;;;;;22.33;19.80;;;10.70;99.90;;;;;;5100519;28;20174;-78
2023/10/26 00:52:14;;;;;;;26.60;20.97;;;10.70;99.90;;;;;;5099619;28;20217;-78
2023/10/26 00:54:43;;;;;;;23.70;18.63;;;10.70;99.90;;;;;;5098306;28;20190;-77
2023/10/26 00:57:09;;;;;;;23.30;19.07;;;10.70;99.90;;;;;;5098745;28;20198;-78
2023/10/26 00:59:36;;;;;;;23.83;19.67;;;10.70;99.90;;;;;;5098519;28;20178;-78
2023/10/26 01:02:03;;;;;;;21.90;19.27;;;10.70;99.90;;;;;;5098725;28;20513;-77
2023/10/26 01:04:28;;;;;;;17.63;15.07;;;10.70;99.90;;;;;;5097481;28;20193;-77
2023/10/26 01:06:54;;;;;;;17.53;15.30;;;10.60;99.90;;;;;;5099424;28;20227;-78
2023/10/26 01:09:21;;;;;;;18.73;15.87;;;10.70;99.90;;;;;;5099532;28;20178;-78
2023/10/26 01:11:46;;;;;;;22.70;17.60;;;10.70;99.90;;;;;;5098269;28;20181;-77
2023/10/26 01:14:13;;;;;;;23.57;19.33;;;10.70;99.90;;;;;;5098231;28;20202;-78
2023/10/26 01:16:39;;;;;;;22.80;18.87;;;10.70;99.90;;;;;;5100159;28;20194;-78
2023/10/26 01:19:06;;;;;;;22.70;19.57;;;10.70;99.90;;;;;;5101428;28;20189;-78
2023/10/26 01:21:50;;;;;;;24.37;18.47;;;10.70;99.90;;;;;;5098001;28;20614;-77
2023/10/26 01:24:16;;;;;;;22.53;18.23;;;10.70;99.90;;;;;;5099303;28;20190;-79
2023/10/26 01:26:42;;;;;;;19.77;17.67;;;10.70;99.90;;;;;;5100898;28;20213;-78
2023/10/26 01:29:07;;;;;;;20.53;18.43;;;10.70;99.90;;;;;;5098103;28;20194;-77
2023/10/26 01:31:33;;;;;;;20.50;18.30;;;10.70;99.90;;;;;;5098470;28;20269;-78
2023/10/26 01:33:58;;;;;;;22.93;19.37;;;10.60;99.90;;;;;;5100137;28;20198;-78
2023/10/26 01:36:25;;;;;;;22.80;19.90;;;10.60;99.90;;;;;;5099514;28;20247;-78
2023/10/26 01:38:51;;;;;;;26.20;19.53;;;10.60;99.90;;;;;;5099055;28;20583;-78
2023/10/26 01:41:16;;;;;;;22.10;19.80;;;10.60;99.90;;;;;;5099994;28;20315;-78
2023/10/26 01:43:42;;;;;;;24.97;19.27;;;10.60;99.90;;;;;;5089252;28;20206;-78
2023/10/26 01:46:07;;;;;;;21.97;18.30;;;10.60;99.90;;;;;;5081268;28;20179;-78
2023/10/26 01:48:33;;;;;;;20.97;17.77;;;10.60;99.90;;;;;;5080022;28;20174;-78
2023/10/26 01:50:59;;;;;;;20.87;17.13;;;10.60;99.90;;;;;;5081804;28;20185;-78
2023/10/26 01:53:26;;;;;;;20.10;17.63;;;10.60;99.90;;;;;;5081966;28;20593;-78
2023/10/26 01:55:51;;;;;;;20.33;18.07;;;10.60;99.90;;;;;;5082123;28;20190;-78
2023/10/26 01:58:17;;;;;;;22.03;18.03;;;10.50;99.90;;;;;;5097333;28;20259;-78
2023/10/26 02:00:43;;;;;;;19.97;17.87;;;10.60;99.90;;;;;;5099978;28;20174;-77
2023/10/26 02:03:08;;;;;;;19.30;17.27;;;10.60;99.90;;;;;;5098468;28;20174;-78
2023/10/26 02:05:34;;;;;;;21.40;18.23;;;10.60;99.90;;;;;;5099517;28;20202;-78
2023/10/26 02:07:59;;;;;;;19.80;17.70;;;10.60;99.90;;;;;;5096860;28;20269;-77
2023/10/26 02:10:29;;;;;;;21.07;18.03;;;10.60;99.90;;;;;;5097872;28;20182;-77
2023/10/26 02:12:55;;;;;;;20.27;17.97;;;10.50;99.90;;;;;;5089881;28;20221;-78
2023/10/26 02:15:21;;;;;;;20.57;17.47;;;10.60;99.90;;;;;;5077588;28;20207;-78
2023/10/26 02:17:47;;;;;;;21.60;17.77;;;10.60;99.90;;;;;;5078308;28;20183;-78
2023/10/26 02:20:13;;;;;;;20.80;18.43;;;10.50;99.90;;;;;;5078640;28;20206;-78
2023/10/26 02:22:38;;;;;;;19.10;17.03;;;10.50;99.90;;;;;;5079177;28;20571;-77
2023/10/26 02:25:04;;;;;;;19.47;17.43;;;10.50;99.90;;;;;;5075141;28;20206;-78
2023/10/26 02:27:31;;;;;;;20.13;17.97;;;10.50;99.90;;;;;;5076582;28;20198;-78
2023/10/26 02:29:56;;;;;;;20.07;16.93;;;10.50;99.90;;;;;;5075716;28;20194;-77
2023/10/26 02:32:22;;;;;;;22.40;18.17;;;10.50;99.90;;;;;;5077599;28;20175;-78
2023/10/26 02:34:48;;;;;;;24.17;18.73;;;10.50;99.90;;;;;;5078633;28;20194;-78
2023/10/26 02:37:13;;;;;;;22.67;18.20;;;10.50;99.90;;;;;;5077667;28;20225;-78
2023/10/26 02:39:39;;;;;;;20.90;18.43;;;10.50;99.90;;;;;;5077618;28;20232;-78
2023/10/26 02:42:04;;;;;;;22.50;18.97;;;10.50;99.90;;;;;;5088328;28;20684;-78
2023/10/26 02:44:30;;;;;;;21.80;19.60;;;10.50;99.90;;;;;;5098070;28;20186;-78
2023/10/26 02:46:55;;;;;;;20.63;18.43;;;10.50;99.90;;;;;;5098872;28;20649;-78
2023/10/26 02:49:21;;;;;;;23.63;18.43;;;10.50;99.90;;;;;;5098064;28;20174;-78
2023/10/26 02:51:46;;;;;;;21.43;19.13;;;10.50;99.90;;;;;;5099388;28;20182;-79
2023/10/26 02:54:12;;;;;;;21.80;17.90;;;10.50;99.90;;;;;;5098477;28;20194;-78
2023/10/26 02:56:37;;;;;;;21.00;18.77;;;10.50;99.90;;;;;;5076373;28;20224;-78
2023/10/26 02:59:04;;;;;;;20.43;18.07;;;10.40;99.90;;;;;;5079313;28;20220;-78
2023/10/26 03:01:33;;;;;;;20.90;18.53;;;10.40;99.90;;;;;;5078089;28;20228;-78
2023/10/26 03:04:03;;;;;;;22.77;20.20;;;10.50;99.90;;;;;;5078722;28;20194;-78
2023/10/26 03:06:29;;;;;;;24.27;19.37;;;10.40;99.90;;;;;;5075837;28;20175;-77
2023/10/26 03:08:54;;;;;;;21.77;19.43;;;10.40;99.90;;;;;;5076793;28;20186;-78
2023/10/26 03:11:20;;;;;;;21.87;19.50;;;10.50;99.90;;;;;;5086995;28;20183;-78
2023/10/26 03:13:45;;;;;;;23.40;19.80;;;10.40;99.90;;;;;;5097815;28;20209;-78
2023/10/26 03:16:11;;;;;;;23.97;19.60;;;10.40;99.90;;;;;;5096441;28;20198;-78
2023/10/26 03:18:37;;;;;;;21.20;18.83;;;10.40;99.90;;;;;;5097307;28;20178;-78
2023/10/26 03:21:04;;;;;;;22.30;19.03;;;10.40;99.90;;;;;;5097156;28;20170;-78
2023/10/26 03:23:29;;;;;;;21.23;18.93;;;10.50;99.90;;;;;;5099221;28;20194;-78
2023/10/26 03:25:55;;;;;;;21.90;19.33;;;10.40;99.90;;;;;;5098024;28;20181;-78
2023/10/26 03:28:20;;;;;;;22.43;18.87;;;10.40;99.90;;;;;;5095730;28;20284;-78
2023/10/26 03:30:46;;;;;;;22.40;20.00;;;10.40;99.90;;;;;;5098556;28;20181;-78
2023/10/26 03:33:11;;;;;;;24.57;18.80;;;10.40;99.90;;;;;;5098707;28;20215;-77
2023/10/26 03:35:37;;;;;;;21.47;19.00;;;10.40;99.90;;;;;;5098650;28;20263;-78
2023/10/26 03:38:03;;;;;;;22.63;18.30;;;10.40;99.90;;;;;;5101818;28;20171;-78
2023/10/26 03:40:29;;;;;;;23.97;18.83;;;10.40;99.90;;;;;;5102018;28;20217;-78
2023/10/26 03:42:54;;;;;;;22.93;18.37;;;10.40;99.90;;;;;;5087399;28;20573;-78
2023/10/26 03:45:20;;;;;;;22.77;19.23;;;10.40;99.90;;;;;;5060221;28;20341;-78
2023/10/26 03:47:45;;;;;;;21.17;18.77;;;10.40;99.90;;;;;;5061392;28;20259;-78
2023/10/26 03:50:11;;;;;;;19.80;17.87;;;10.30;99.90;;;;;;5062258;28;20184;-78
2023/10/26 03:52:37;;;;;;;22.20;18.50;;;10.30;99.90;;;;;;5060630;28;20229;-78
2023/10/26 03:55:04;;;;;;;21.17;18.17;;;10.30;99.90;;;;;;5062299;28;20718;-78
2023/10/26 03:57:31;;;;;;;19.83;17.40;;;10.30;99.90;;;;;;5060885;28;20178;-78
2023/10/26 03:59:56;;;;;;;20.30;17.97;;;10.30;99.90;;;;;;5096154;28;20174;-78
2023/10/26 04:02:22;;;;;;;27.33;18.93;;;10.30;99.90;;;;;;5101689;28;20189;-78
2023/10/26 04:04:50;;;;;;;21.37;17.70;;;10.30;99.90;;;;;;5103360;28;20193;-78
2023/10/26 04:07:16;;;;;;;19.50;17.17;;;10.30;99.90;;;;;;5103814;28;20185;-77
2023/10/26 04:09:41;;;;;;;23.13;18.67;;;10.30;99.90;;;;;;5103353;28;20177;-78
2023/10/26 04:12:07;;;;;;;21.60;19.30;;;10.30;99.90;;;;;;5103147;28;20181;-77
2023/10/26 04:14:33;;;;;;;24.53;20.37;;;10.30;99.90;;;;;;5092576;28;20596;-78
2023/10/26 04:16:58;;;;;;;21.60;19.33;;;10.30;99.90;;;;;;5082477;28;20202;-78
2023/10/26 04:19:24;;;;;;;22.70;18.73;;;10.30;99.90;;;;;;5082899;28;20574;-78
2023/10/26 04:21:49;;;;;;;25.73;19.47;;;10.30;99.90;;;;;;5083208;28;20179;-78
2023/10/26 04:24:15;;;;;;;29.50;21.07;;;10.30;99.90;;;;;;5082365;28;20281;-78
2023/10/26 04:26:42;;;;;;;26.30;20.97;;;10.30;99.90;;;;;;5080970;28;20186;-78
2023/10/26 04:29:07;;;;;;;26.10;20.47;;;10.30;99.90;;;;;;5083669;28;20625;-78
2023/10/26 04:31:33;;;;;;;22.27;19.87;;;10.30;99.90;;;;;;5095749;28;20194;-78
2023/10/26 04:33:59;;;;;;;25.20;20.17;;;10.30;99.90;;;;;;5102155;28;20225;-78
2023/10/26 04:36:25;;;;;;;22.43;20.03;;;10.30;99.90;;;;;;5103252;28;20194;-78
2023/10/26 04:38:51;;;;;;;23.37;19.13;;;10.30;99.90;;;;;;5102785;28;20193;-77
2023/10/26 04:41:17;;;;;;;21.00;18.70;;;10.20;99.90;;;;;;5101888;28;20176;-78
2023/10/26 04:43:42;;;;;;;19.40;16.57;;;10.20;99.90;;;;;;5101458;28;20278;-78
2023/10/26 04:46:08;;;;;;;22.80;18.30;;;10.20;99.90;;;;;;5097953;28;20180;-78
2023/10/26 04:48:33;;;;;;;20.87;18.67;;;10.20;99.90;;;;;;5100062;28;20182;-79
2023/10/26 04:50:59;;;;;;;23.97;19.27;;;10.20;99.90;;;;;;5098735;28;20196;-79
2023/10/26 04:53:24;;;;;;;22.67;20.03;;;10.20;99.90;;;;;;5099143;28;20270;-78
2023/10/26 04:55:50;;;;;;;25.03;20.57;;;10.20;99.90;;;;;;5099457;28;20202;-78
2023/10/26 04:58:15;;;;;;;26.00;19.57;;;10.20;99.90;;;;;;5098658;28;20311;-78
2023/10/26 05:00:41;;;;;;;23.60;20.83;;;10.20;99.90;;;;;;5101586;28;20193;-78
2023/10/26 05:03:06;;;;;;;22.73;20.10;;;10.20;99.90;;;;;;5097607;28;20600;-78
2023/10/26 05:05:32;;;;;;;22.70;18.47;;;10.30;99.90;;;;;;5097500;28;20575;-78
2023/10/26 05:07:58;;;;;;;26.57;20.33;;;10.20;99.90;;;;;;5096230;28;20544;-77
2023/10/26 05:10:23;;;;;;;27.23;20.47;;;10.20;99.90;;;;;;5096689;28;20521;-78
2023/10/26 05:12:49;;;;;;;23.90;20.80;;;10.20;99.90;;;;;;5097830;28;20201;-77
2023/10/26 05:15:14;;;;;;;27.53;21.90;;;10.20;99.90;;;;;;5097029;28;20277;-78
2023/10/26 05:17:40;;;;;;;26.67;21.03;;;10.20;99.90;;;;;;5096456;28;20171;-78
2023/10/26 05:20:07;;;;;;;25.07;20.33;;;10.20;99.90;;;;;;5098445;28;20715;-78
2023/10/26 05:22:32;;;;;;;23.97;20.27;;;10.20;99.90;;;;;;5098246;28;20291;-78
2023/10/26 05:24:59;;;;;;;24.87;21.40;;;10.20;99.90;;;;;;5098960;28;20218;-78
2023/10/26 05:27:25;;;;;;;24.87;20.07;;;10.20;99.90;;;;;;5098309;28;20650;-77
2023/10/26 05:29:51;;;;;;;28.67;21.57;;;10.20;99.90;;;;;;5097498;28;20212;-76
2023/10/26 05:32:17;;;;;;;29.33;22.60;;;10.20;99.90;;;;;;5098062;28;20171;-78
2023/10/26 05:34:42;;;;;;;25.13;21.47;;;10.30;99.90;;;;;;5096844;28;20278;-78
2023/10/26 05:37:08;;;;;;;27.77;23.00;;;10.30;99.90;;;;;;5097698;28;20190;-78
2023/10/26 05:39:33;;;;;;;25.67;21.87;;;10.30;99.90;;;;;;5097239;28;20642;-78
2023/10/26 05:41:59;;;;;;;29.03;22.70;;;10.30;99.90;;;;;;5094973;28;20174;-77
2023/10/26 05:44:25;;;;;;;27.00;21.77;;;10.30;99.90;;;;;;5097342;28;20194;-78
2023/10/26 05:46:50;;;;;;;29.90;23.60;;;10.30;99.90;;;;;;5090765;28;20179;-77
2023/10/26 05:49:16;;;;;;;30.23;22.87;;;10.30;99.90;;;;;;5077899;28;20192;-77
2023/10/26 05:51:41;;;;;;;30.43;22.60;;;10.20;99.90;;;;;;5090067;28;20183;-77
2023/10/26 05:54:07;;;;;;;30.80;22.60;;;10.20;99.90;;;;;;5096662;28;20221;-78
2023/10/26 05:56:32;;;;;;;29.50;21.83;;;10.20;99.90;;;;;;5096645;28;20196;-77
2023/10/26 05:58:58;;;;;;;25.63;21.30;;;10.20;99.90;;;;;;5095936;28;20249;-78
2023/10/26 06:01:24;;;;;;;26.70;21.57;;;10.30;99.90;;;;;;5097626;28;20174;-77
2023/10/26 06:03:49;;;;;;;25.40;20.63;;;10.20;99.90;;;;;;5095708;28;20274;-77
2023/10/26 06:06:15;;;;;;;28.63;22.30;;;10.20;99.90;;;;;;5096202;28;20629;-78
2023/10/26 06:08:40;;;;;;;29.97;21.73;;;10.20;99.90;;;;;;5097760;28;20170;-78
2023/10/26 06:11:06;;;;;;;25.60;21.47;;;10.20;99.90;;;;;;5094443;28;20576;-78
2023/10/26 06:13:32;;;;;;;26.83;21.40;;;10.30;99.90;;;;;;5097879;28;20182;-77
2023/10/26 06:15:57;;;;;;;26.27;21.43;;;10.20;99.90;;;;;;5097352;28;20222;-77
2023/10/26 06:18:23;;;;;;;27.87;20.63;;;10.20;99.90;;;;;;5097309;28;20697;-78
2023/10/26 06:20:59;;;;;;;25.97;20.80;;;10.10;99.90;;;;;;5080263;28;20672;-78
2023/10/26 06:23:25;;;;;;;28.03;20.67;;;10.10;99.90;;;;;;5076876;28;20182;-77
2023/10/26 06:25:59;;;;;;;27.63;21.67;;;10.10;99.90;;;;;;5078293;28;20171;-78
2023/10/26 06:28:25;;;;;;;28.70;20.27;;;10.10;99.90;;;;;;5077218;28;20718;-77
2023/10/26 06:30:51;;;;;;;24.60;21.37;;;10.10;99.90;;;;;;5077532;28;20229;-78
2023/10/26 06:33:17;;;;;;;27.07;20.17;;;10.00;99.90;;;;;;5080507;28;20186;-78
2023/10/26 06:35:42;;;;;;;23.47;19.07;;;10.00;99.90;;;;;;5098521;28;20300;-77
2023/10/26 06:38:08;;;;;;;29.80;21.07;;;10.00;99.90;;;;;;5099055;28;20174;-78
2023/10/26 06:40:33;;;;;;;28.33;21.73;;;10.00;99.90;;;;;;5097681;28;20215;-78
2023/10/26 06:43:00;;;;;;;25.47;20.23;;;10.00;99.90;;;;;;5098668;28;20166;-78
2023/10/26 06:45:26;;;;;;;25.67;20.70;;;10.00;99.90;;;;;;5098296;28;20243;-77
2023/10/26 06:47:51;;;;;;;26.53;21.67;;;10.00;99.90;;;;;;5098095;28;20166;-78
2023/10/26 06:50:17;;;;;;;28.63;21.43;;;9.90;99.90;;;;;;5095586;28;20213;-78
2023/10/26 06:52:43;;;;;;;31.80;22.83;;;10.20;99.90;;;;;;5096004;28;20174;-78
2023/10/26 06:55:14;;;;;;;30.87;22.60;;;10.10;99.90;;;;;;5097689;28;20190;-78
2023/10/26 06:57:43;;;;;;;29.90;22.33;;;10.10;99.90;;;;;;5096068;28;20193;-78
2023/10/26 07:00:10;;;;;;;27.50;23.33;;;10.00;99.90;;;;;;5098578;28;20231;-78
2023/10/26 07:02:36;;;;;;;27.60;22.97;;;10.10;99.90;;;;;;5097912;28;20175;-78
2023/10/26 07:05:03;;;;;;;30.20;22.60;;;10.10;99.90;;;;;;5098554;28;20198;-77
2023/10/26 07:07:30;;;;;;;31.10;24.67;;;10.10;99.90;;;;;;5089008;28;20171;-78
2023/10/26 07:09:57;;;;;;;31.67;23.23;;;10.20;99.90;;;;;;5096597;28;20673;-77
2023/10/26 07:12:23;;;;;;;34.10;23.50;;;10.10;99.90;;;;;;5101643;28;20634;-78
2023/10/26 07:14:53;;;;;;;32.27;23.53;;;10.20;99.90;;;;;;5101454;28;20225;-78
2023/10/26 07:17:25;;;;;;;35.70;24.20;;;10.10;99.90;;;;;;5101516;28;20217;-78
2023/10/26 07:19:51;;;;;;;29.80;23.57;;;10.20;99.90;;;;;;5102997;28;20214;-78
2023/10/26 07:22:16;;;;;;;28.60;23.10;;;10.20;99.90;;;;;;5083717;28;20186;-78
2023/10/26 07:24:42;;;;;;;30.13;22.77;;;10.20;99.90;;;;;;5080919;28;20186;-77
2023/10/26 07:27:07;;;;;;;35.10;22.43;;;10.10;99.90;;;;;;5081707;28;20175;-78
2023/10/26 07:29:33;;;;;;;30.37;23.57;;;10.10;99.90;;;;;;5081953;28;20215;-77
2023/10/26 07:31:59;;;;;;;29.07;22.43;;;10.10;99.90;;;;;;5080277;28;20288;-77
2023/10/26 07:34:25;;;;;;;29.37;22.63;;;10.10;99.90;;;;;;5078769;28;20260;-77
2023/10/26 07:36:50;;;;;;;29.77;21.87;;;10.10;99.90;;;;;;5078576;28;20195;-77
2023/10/26 07:39:16;;;;;;;31.77;22.87;;;10.20;99.90;;;;;;5080534;28;20526;-78
2023/10/26 07:41:43;;;;;;;32.50;23.00;;;10.20;99.90;;;;;;5097378;28;20178;-77
2023/10/26 07:44:08;;;;;;;31.50;23.33;;;10.20;99.90;;;;;;5100457;28;20770;-78
2023/10/26 07:46:34;;;;;;;29.77;21.67;;;10.20;99.90;;;;;;5100960;28;20264;-77
2023/10/26 07:48:59;;;;;;;34.97;23.40;;;10.30;99.90;;;;;;5101434;28;20250;-77
2023/10/26 07:51:25;;;;;;;29.67;23.40;;;10.30;99.90;;;;;;5101165;28;20174;-78
2023/10/26 07:53:50;;;;;;;35.13;24.90;;;10.40;99.90;;;;;;5098600;28;20198;-78
2023/10/26 07:56:16;;;;;;;34.23;24.23;;;10.40;99.90;;;;;;5100655;28;20285;-78
2023/10/26 07:58:41;;;;;;;28.20;23.33;;;10.40;99.90;;;;;;5101032;28;20162;-78
2023/10/26 08:01:11;;;;;;;31.53;23.67;;;10.40;99.90;;;;;;5100867;28;20630;-78
2023/10/26 08:03:36;;;;;;;27.97;21.60;;;10.40;99.90;;;;;;5098527;28;20194;-77
2023/10/26 08:06:02;;;;;;;28.57;23.20;;;10.50;99.90;;;;;;5101765;28;20185;-78
2023/10/26 08:08:29;;;;;;;29.83;23.63;;;10.40;99.90;;;;;;5100901;28;20175;-78
2023/10/26 08:10:56;;;;;;;30.07;22.13;;;10.40;99.90;;;;;;5098933;28;20175;-78
2023/10/26 08:13:22;;;;;;;27.03;20.20;;;10.40;99.90;;;;;;5100480;28;20205;-78
2023/10/26 08:15:48;;;;;;;26.43;21.10;;;10.40;99.90;;;;;;5101715;28;20210;-78
2023/10/26 08:18:13;;;;;;;28.73;21.10;;;10.40;99.90;;;;;;5100946;28;20331;-78
2023/10/26 08:20:40;;;;;;;30.43;21.50;;;10.50;99.90;;;;;;5101298;28;20166;-77
2023/10/26 08:23:05;;;;;;;29.70;21.53;;;10.40;99.90;;;;;;5098196;28;20171;-78
2023/10/26 08:25:35;;;;;;;27.43;21.77;;;10.50;99.90;;;;;;5100523;28;20194;-77
2023/10/26 08:28:01;;;;;;;28.17;21.93;;;10.50;99.90;;;;;;5100383;28;20556;-77
2023/10/26 08:30:27;;;;;;;26.20;21.50;;;10.40;99.90;;;;;;5100008;28;20186;-78
2023/10/26 08:32:54;;;;;;;28.53;20.93;;;10.50;99.90;;;;;;5099400;28;20178;-78
2023/10/26 08:35:20;;;;;;;27.00;20.90;;;10.40;99.90;;;;;;5099774;28;20738;-78
2023/10/26 08:37:45;;;;;;;28.00;21.83;;;10.50;99.90;;;;;;5100238;28;20170;-78
2023/10/26 08:40:12;;;;;;;39.07;25.83;;;10.50;99.90;;;;;;5079842;28;20718;-78
2023/10/26 08:42:38;;;;;;;32.10;23.20;;;10.50;99.90;;;;;;5094624;28;20206;-78
2023/10/26 08:45:10;;;;;;;31.23;23.87;;;10.40;99.90;;;;;;5098458;28;20194;-78
2023/10/26 08:47:36;;;;;;;31.17;22.73;;;10.40;99.90;;;;;;5099190;28;20158;-77
2023/10/26 08:50:03;;;;;;;29.40;21.47;;;10.40;99.90;;;;;;5099331;28;20315;-77
2023/10/26 08:52:28;;;;;;;29.00;22.00;;;10.40;99.90;;;;;;5099091;28;20307;-77
2023/10/26 08:54:55;;;;;;;25.80;21.60;;;10.40;99.90;;;;;;5092468;28;20230;-77
2023/10/26 08:57:21;;;;;;;29.30;22.50;;;10.40;99.90;;;;;;5080015;28;20206;-78
2023/10/26 08:59:46;;;;;;;33.53;26.30;;;10.40;99.90;;;;;;5080030;28;20183;-78
2023/10/26 09:02:12;;;;;;;31.77;25.93;;;10.40;99.90;;;;;;5082146;28;20170;-77
2023/10/26 09:04:37;;;;;;;35.27;25.80;;;10.40;99.90;;;;;;5080502;28;20283;-78
2023/10/26 09:07:03;;;;;;;32.80;23.80;;;10.50;99.90;;;;;;5078554;28;20181;-77
2023/10/26 09:09:41;;;;;;;28.30;23.00;;;10.40;99.90;;;;;;5078374;28;20471;-77
2023/10/26 09:12:11;;;;;;;25.10;20.27;;;10.30;99.90;;;;;;5096115;28;20346;-78
2023/10/26 09:14:36;;;;;;;26.87;19.83;;;10.40;99.90;;;;;;5099377;28;20285;-78
2023/10/26 09:17:03;;;;;;;27.73;20.13;;;10.40;99.90;;;;;;5098758;28;20302;-78
2023/10/26 09:19:38;;;;;;;21.50;16.43;;;10.50;99.90;;;;;;5099809;28;20180;-78
2023/10/26 09:22:03;;;;;;;20.80;16.27;;;10.50;99.90;;;;;;5097882;28;20636;-77
2023/10/26 09:24:29;;;;;;;21.03;15.07;;;10.50;99.90;;;;;;5099310;28;20199;-78
2023/10/26 09:27:00;;;;;;;19.27;15.00;;;10.60;99.90;;;;;;5083822;28;20266;-78
2023/10/26 09:29:37;;;;;;;16.87;12.53;;;10.60;99.90;;;;;;5078346;28;20665;-77
2023/10/26 09:32:02;;;;;;;14.33;12.20;;;10.60;99.90;;;;;;5078049;28;20606;-78
2023/10/26 09:34:28;;;;;;;13.40;11.30;;;10.60;99.90;;;;;;5078475;28;20203;-78
2023/10/26 09:37:01;;;;;;;15.63;12.50;;;10.60;99.90;;;;;;5078294;28;20199;-78
2023/10/26 09:39:30;;;;;;;21.30;15.93;;;10.70;99.90;;;;;;5077518;28;20202;-78
2023/10/26 09:41:57;;;;;;;18.13;15.50;;;10.80;99.90;;;;;;5077510;28;20190;-78
2023/10/26 09:44:24;;;;;;;17.03;14.13;;;10.90;99.90;;;;;;5077747;28;20195;-78
2023/10/26 09:46:50;;;;;;;18.80;13.67;;;10.90;99.90;;;;;;5078083;28;20187;-77
2023/10/26 09:49:16;;;;;;;16.13;13.13;;;11.00;99.90;;;;;;5080047;28;20194;-78
2023/10/26 09:51:43;;;;;;;14.47;12.97;;;11.10;99.90;;;;;;5095025;28;20327;-77
2023/10/26 09:54:09;;;;;;;14.60;12.23;;;11.10;99.90;;;;;;5097624;28;20679;-77
2023/10/26 09:56:36;;;;;;;13.10;11.67;;;11.20;99.90;;;;;;5098122;28;20599;-78
2023/10/26 09:59:03;;;;;;;14.83;11.33;;;11.30;99.90;;;;;;5097523;28;20166;-78
2023/10/26 10:01:33;;;;;;;14.33;10.63;;;11.50;99.90;;;;;;5098484;28;20229;-78
2023/10/26 10:03:59;;;;;;;11.10;10.00;;;11.50;99.90;;;;;;5096368;28;20209;-78
2023/10/26 10:06:47;;;;;;;9.60;8.60;;;11.50;99.90;;;;;;5097912;28;20178;-77
2023/10/26 10:09:13;;;;;;;8.83;7.93;;;11.50;99.90;;;;;;5097644;28;20188;-78
2023/10/26 10:11:39;;;;;;;13.53;9.23;;;11.50;99.90;;;;;;5097747;28;20202;-78
2023/10/26 10:14:05;;;;;;;13.23;10.60;;;11.60;99.90;;;;;;5098343;28;20217;-78
2023/10/26 10:16:33;;;;;;;14.40;10.77;;;11.70;99.90;;;;;;5098159;28;20664;-77
2023/10/26 10:19:21;;;;;;;12.47;11.13;;;11.70;99.90;;;;;;5088305;28;20171;-78
2023/10/26 10:21:51;;;;;;;13.00;11.60;;;11.80;99.90;;;;;;5076687;28;20170;-77
2023/10/26 10:24:44;;;;;;;12.17;10.97;;;11.90;99.90;;;;;;5076929;28;20225;-78
2023/10/26 10:27:15;;;;;;;13.80;10.20;;;12.00;99.90;;;;;;5076889;28;20668;-77
2023/10/26 10:29:42;;;;;;;12.07;9.57;;;12.00;99.90;;;;;;5075993;28;20194;-77
2023/10/26 10:32:10;;;;;;;10.50;8.97;;;12.00;99.90;;;;;;5076189;28;20179;-76
2023/10/26 10:34:43;;;;;;;10.23;9.13;;;12.00;99.90;;;;;;5096207;28;20201;-77
2023/10/26 10:37:21;;;;;;;10.43;9.40;;;12.10;99.90;;;;;;5096545;28;20197;-78
2023/10/26 10:40:15;;;;;;;12.37;8.57;;;12.10;99.90;;;;;;5096822;28;20147;-78
2023/10/26 10:42:45;;;;;;;12.17;8.83;;;12.10;99.90;;;;;;5096351;28;20162;-78
2023/10/26 10:45:12;;;;;;;9.30;8.40;;;12.20;99.90;;;;;;5095793;28;20269;-77
2023/10/26 10:47:41;;;;;;;9.23;8.20;;;12.20;99.90;;;;;;5096940;28;20181;-77
2023/10/26 10:50:21;;;;;;;9.43;8.30;;;12.30;99.90;;;;;;5075337;28;20193;-77
2023/10/26 10:52:48;;;;;;;10.37;9.43;;;12.30;99.90;;;;;;5076151;28;20170;-77
2023/10/26 10:55:20;;;;;;;10.43;9.00;;;12.30;99.90;;;;;;5076270;28;20605;-77
2023/10/26 10:58:00;;;;;;;10.50;9.50;;;12.30;99.90;;;;;;5076320;28;20705;-77
2023/10/26 11:00:27;;;;;;;10.30;9.30;;;12.30;99.90;;;;;;5076499;28;20178;-77
2023/10/26 11:03:02;;;;;;;8.70;7.80;;;12.40;99.90;;;;;;5077895;28;20254;-78
2023/10/26 11:05:34;;;;;;;7.93;7.23;;;12.40;99.90;;;;;;5089236;28;20285;-78
2023/10/26 11:08:00;;;;;;;8.07;7.27;;;12.40;99.90;;;;;;5096993;28;20170;-78
2023/10/26 11:10:25;;;;;;;9.07;8.10;;;12.50;99.90;;;;;;5097833;28;20259;-78
2023/10/26 11:12:51;;;;;;;8.67;7.77;;;12.50;99.90;;;;;;5097974;28;20174;-78
2023/10/26 11:15:17;;;;;;;7.80;7.00;;;12.50;99.90;;;;;;5098031;28;20194;-78
2023/10/26 11:17:43;;;;;;;6.50;5.57;;;12.50;99.90;;;;;;5101954;28;20159;-78
2023/10/26 11:20:39;;;;;;;5.50;4.70;;;12.50;99.90;;;;;;5099124;28;20182;-78
2023/10/26 11:23:06;;;;;;;4.53;4.13;;;12.50;99.90;;;;;;5096528;28;20181;-78
2023/10/26 11:25:32;;;;;;;4.90;3.27;;;12.40;99.90;;;;;;5096076;28;20550;-78
2023/10/26 11:27:57;;;;;;;3.63;3.10;;;12.50;99.90;;;;;;5095930;28;20239;-77
2023/10/26 11:30:23;;;;;;;2.00;1.80;;;12.50;99.90;;;;;;5097046;28;20221;-78
2023/10/26 11:32:48;;;;;;;5.00;2.17;;;12.60;99.90;;;;;;5080036;28;20346;-78
2023/10/26 11:35:15;;;;;;;2.40;1.73;;;12.60;99.90;;;;;;5075225;28;20305;-77
2023/10/26 11:37:43;;;;;;;1.50;1.40;;;12.60;99.90;;;;;;5078004;28;20174;-79
2023/10/26 11:40:12;;;;;;;2.20;2.00;;;12.70;99.90;;;;;;5076362;28;20533;-78
2023/10/26 11:42:50;;;;;;;2.00;1.80;;;12.70;99.90;;;;;;5071337;28;20198;-78
2023/10/26 11:45:18;;;;;;;2.93;1.60;;;12.70;99.90;;;;;;5072912;28;20201;-78
2023/10/26 11:48:02;;;;;;;7.40;1.50;;;12.70;99.90;;;;;;5073488;28;20312;-77
2023/10/26 11:50:34;;;;;;;4.23;1.70;;;12.70;99.90;;;;;;5073172;28;20164;-77
2023/10/26 11:53:04;;;;;;;2.10;1.47;;;12.70;99.90;;;;;;5073162;28;20174;-77
2023/10/26 11:55:32;;;;;;;2.83;1.50;;;12.60;99.90;;;;;;5080519;28;20681;-77
2023/10/26 11:57:59;;;;;;;1.73;1.63;;;12.60;99.90;;;;;;5097122;28;20179;-77
2023/10/26 12:00:26;;;;;;;1.53;1.43;;;12.60;99.90;;;;;;5097007;28;20182;-76
2023/10/26 12:02:56;;;;;;;2.87;2.30;;;12.60;99.90;;;;;;5096803;28;20177;-77
2023/10/26 12:05:23;;;;;;;3.20;1.83;;;12.60;99.90;;;;;;5096661;28;20190;-77
2023/10/26 12:07:49;;;;;;;2.27;2.03;;;12.50;99.90;;;;;;5096635;28;20701;-77
2023/10/26 12:10:16;;;;;;;2.47;2.10;;;12.50;99.90;;;;;;5096340;28;20181;-78
2023/10/26 12:12:42;;;;;;;1.97;1.77;;;12.50;99.90;;;;;;5078824;28;20247;-77
2023/10/26 12:15:08;;;;;;;2.87;2.00;;;12.50;99.90;;;;;;5088213;28;20585;-77
2023/10/26 12:17:34;;;;;;;2.77;1.80;;;12.50;99.90;;;;;;5095511;28;20208;-78
2023/10/26 12:20:00;;;;;;;12.47;2.10;;;12.50;99.90;;;;;;5096101;28;20202;-77
2023/10/26 12:22:25;;;;;;;5.90;1.73;;;12.50;99.90;;;;;;5096610;28;20174;-77
2023/10/26 12:24:51;;;;;;;2.23;1.90;;;12.50;99.90;;;;;;5096434;28;20240;-77
2023/10/26 12:27:16;;;;;;;2.50;2.00;;;12.50;99.90;;;;;;5093126;28;20186;-77
2023/10/26 12:29:45;;;;;;;3.13;1.83;;;12.50;99.90;;;;;;5096333;28;20281;-77